< Typhoon 197901 1979 Season Typhoon 197903 >
Typhoon 197902 (BESS)
General InformationTrack Information on Google MapsDetailed Wind InformationList of All Images || Disaster Info.ResourceGoogle EarthGE AnimationAtom FeedGeoJSON
Detalied Best Track (Time Zone = UTC)
Year Month Day Hour Lat. Long. Pressure (hPa) Wind (kt) Class Image Chart
1979 3 19 00 8.4 144.8 1010 0 2 Image Chart
1979 3 19 06 8.5 143.7 1008 0 2 Image Chart
1979 3 19 12 9.0 143.0 1008 0 2 Image Chart
1979 3 19 18 9.7 142.3 1008 0 2 Image Chart
1979 3 20 00 10.3 141.5 1006 0 2 Image Chart
1979 3 20 06 10.5 140.8 1004 0 2 Image Chart
1979 3 20 12 10.8 139.8 1002 0 2 Image Chart
1979 3 20 18 11.2 139.2 1000 0 2 Image Chart
1979 3 21 00 11.7 138.7 998 35 3 Image Chart
1979 3 21 06 12.2 137.8 994 35 3 Image Chart
1979 3 21 12 12.8 136.7 990 40 3 Image Chart
1979 3 21 18 13.2 135.8 985 45 3 Image Chart
1979 3 22 00 13.6 135.4 975 55 4 Image Chart
1979 3 22 06 14.1 135.0 970 60 4 Image Chart
1979 3 22 12 14.7 134.7 965 70 5 Image Chart
1979 3 22 18 15.5 134.6 965 70 5 Image Chart
1979 3 23 00 16.1 134.6 955 70 5 Image Chart
1979 3 23 06 17.1 135.1 955 70 5 Image Chart
1979 3 23 12 18.0 136.0 960 70 5 Image Chart
1979 3 23 18 18.8 136.9 960 70 5 Image Chart
1979 3 24 00 19.6 138.0 970 70 5 Image Chart
1979 3 24 06 20.4 139.0 985 60 4 Image Chart
1979 3 24 12 21.3 140.6 990 50 4 Image Chart
1979 3 24 18 22.2 142.1 996 45 3 Image Chart
1979 3 25 00 23.1 143.8 1000 40 3 Image Chart
1979 3 25 06 24.0 145.0 1008 0 2 Image Chart
Japan Meteorological Agency Best Track Data | Correction Date : 1992-10-21
< Typhoon 197901 1979 Season Typhoon 197903 >

Help